Time;durP1;ratioP1;P1;durP2;ratioP2;P2;SDS_P1;SDS_P2;PMS_P1;PMS_P2;Temp;Humidity;BMP_temperature;BMP_pressure;BME280_temperature;BME280_humidity;BME280_pressure;Samples;Min_cycle;Max_cycle;Signal;HPM_P1;HPM_P2
2023/10/16 00:01:13;;;;;;;3.17;1.70;;;7.30;99.90;;;;;;4985979;28;20454;-64
2023/10/16 00:03:43;;;;;;;3.57;1.90;;;7.20;99.90;;;;;;4977040;28;20283;-65
2023/10/16 00:06:13;;;;;;;2.10;1.47;;;7.20;99.90;;;;;;4994521;28;20182;-65
2023/10/16 00:08:48;;;;;;;2.93;1.40;;;7.20;99.90;;;;;;4978030;28;20173;-64
2023/10/16 00:11:23;;;;;;;2.27;1.40;;;7.20;99.90;;;;;;4978719;28;20314;-64
2023/10/16 00:13:51;;;;;;;1.70;1.33;;;7.20;99.90;;;;;;4994343;28;20234;-65
2023/10/16 00:16:20;;;;;;;2.00;1.37;;;7.10;99.90;;;;;;4994244;28;20187;-64
2023/10/16 00:18:47;;;;;;;1.37;1.20;;;7.10;99.90;;;;;;4994404;28;20233;-65
2023/10/16 00:21:13;;;;;;;3.87;1.50;;;7.10;99.90;;;;;;4977325;28;20208;-64
2023/10/16 00:23:40;;;;;;;2.80;1.40;;;7.00;99.90;;;;;;4974225;28;20239;-65
2023/10/16 00:26:16;;;;;;;2.47;1.43;;;7.00;99.90;;;;;;4991865;28;20180;-65
2023/10/16 00:28:45;;;;;;;2.57;1.40;;;7.00;99.90;;;;;;4983989;28;20198;-65
2023/10/16 00:31:23;;;;;;;1.80;1.40;;;7.00;99.90;;;;;;4993870;28;20207;-64
2023/10/16 00:33:51;;;;;;;1.77;1.40;;;6.90;99.90;;;;;;4977502;28;20234;-65
2023/10/16 00:36:17;;;;;;;4.43;1.63;;;7.00;99.90;;;;;;4984038;28;20208;-65
2023/10/16 00:38:48;;;;;;;2.67;1.50;;;6.90;99.90;;;;;;4993808;28;20199;-66
2023/10/16 00:43:40;;;;;;;2.03;1.37;;;6.90;99.90;;;;;;4959417;28;20269;-64
2023/10/16 00:46:09;;;;;;;2.60;1.50;;;6.90;99.90;;;;;;4984540;28;20168;-65
2023/10/16 00:48:39;;;;;;;1.80;1.63;;;6.90;99.90;;;;;;4978179;28;20176;-64
2023/10/16 00:51:09;;;;;;;1.70;1.30;;;7.00;99.90;;;;;;4992788;28;20218;-64
2023/10/16 00:53:36;;;;;;;2.47;1.70;;;6.90;99.90;;;;;;4990080;28;20183;-64
2023/10/16 00:56:11;;;;;;;1.83;1.53;;;6.90;99.90;;;;;;4989506;28;20194;-64
2023/10/16 00:58:42;;;;;;;1.90;1.50;;;6.90;99.90;;;;;;4977644;28;20194;-64
2023/10/16 01:01:14;;;;;;;3.67;1.90;;;6.90;99.90;;;;;;4977619;28;20263;-64
2023/10/16 01:03:47;;;;;;;2.63;1.50;;;6.90;99.90;;;;;;4976653;28;20202;-64
2023/10/16 01:06:24;;;;;;;1.83;1.50;;;6.90;99.90;;;;;;4983721;28;20201;-65
2023/10/16 01:08:51;;;;;;;1.70;1.37;;;6.90;99.90;;;;;;4979982;28;20171;-64
2023/10/16 01:11:20;;;;;;;2.47;1.50;;;6.90;99.90;;;;;;4990404;28;20203;-64
2023/10/16 01:13:50;;;;;;;2.13;1.40;;;6.90;99.90;;;;;;4978687;28;20211;-65
2023/10/16 01:16:19;;;;;;;2.40;1.50;;;6.80;99.90;;;;;;4977564;28;20188;-65
2023/10/16 01:18:45;;;;;;;2.27;1.50;;;6.80;99.90;;;;;;4974125;28;20169;-64
2023/10/16 01:21:17;;;;;;;2.17;1.20;;;6.70;99.90;;;;;;4992752;28;20223;-64
2023/10/16 01:23:45;;;;;;;1.77;1.30;;;6.70;99.90;;;;;;4993689;28;20211;-64
2023/10/16 01:26:15;;;;;;;2.37;1.50;;;6.70;99.90;;;;;;5005048;28;20182;-64
2023/10/16 01:28:41;;;;;;;2.20;1.40;;;6.70;99.90;;;;;;5013393;28;20186;-64
2023/10/16 01:31:09;;;;;;;2.10;1.40;;;6.70;99.90;;;;;;4993729;28;20190;-64
2023/10/16 01:33:35;;;;;;;1.60;1.37;;;6.60;99.90;;;;;;4993097;28;20271;-64
2023/10/16 01:36:05;;;;;;;2.87;1.57;;;6.70;99.90;;;;;;4992814;28;20214;-64
2023/10/16 01:38:31;;;;;;;2.13;1.20;;;6.70;99.90;;;;;;4989419;28;20275;-64
2023/10/16 01:43:46;;;;;;;1.77;1.43;;;6.60;99.90;;;;;;4977631;28;20196;-64
2023/10/16 01:46:15;;;;;;;3.00;1.50;;;6.60;99.90;;;;;;4982587;28;20180;-64
2023/10/16 01:48:42;;;;;;;2.43;1.67;;;6.60;99.90;;;;;;4992756;28;20187;-64
2023/10/16 01:51:11;;;;;;;2.07;1.30;;;6.60;99.90;;;;;;4992853;28;20180;-64
2023/10/16 01:53:40;;;;;;;2.10;1.40;;;6.60;99.90;;;;;;4992300;28;20246;-64
2023/10/16 01:56:12;;;;;;;2.47;1.30;;;6.60;99.90;;;;;;4976308;28;20295;-65
2023/10/16 01:58:52;;;;;;;3.87;1.63;;;6.60;99.90;;;;;;4992269;28;20176;-64
2023/10/16 02:01:19;;;;;;;1.30;1.17;;;6.60;99.90;;;;;;4971590;28;20211;-64
2023/10/16 02:03:47;;;;;;;1.73;1.10;;;6.50;99.90;;;;;;4992303;28;20203;-64
2023/10/16 02:06:14;;;;;;;1.50;1.23;;;6.60;99.90;;;;;;4992466;28;20200;-64
2023/10/16 02:08:43;;;;;;;2.13;1.13;;;6.50;99.90;;;;;;4992619;28;20199;-64
2023/10/16 02:11:10;;;;;;;1.60;1.10;;;6.50;99.90;;;;;;4992434;28;20184;-64
2023/10/16 02:13:40;;;;;;;1.27;1.10;;;6.50;99.90;;;;;;4969050;28;20172;-64
2023/10/16 02:16:10;;;;;;;3.07;1.17;;;6.50;99.90;;;;;;4991664;28;20210;-64
2023/10/16 02:18:41;;;;;;;1.67;1.33;;;6.50;99.90;;;;;;4990167;28;20235;-64
2023/10/16 02:21:14;;;;;;;2.37;1.40;;;6.50;99.90;;;;;;4992156;28;20227;-64
2023/10/16 02:23:43;;;;;;;3.40;1.27;;;6.50;99.90;;;;;;5007325;28;20207;-65
2023/10/16 02:26:09;;;;;;;1.67;1.03;;;6.40;99.90;;;;;;4975027;28;20219;-65
2023/10/16 02:28:36;;;;;;;1.87;1.30;;;6.40;99.90;;;;;;4984060;28;20223;-65
2023/10/16 02:31:10;;;;;;;1.83;1.20;;;6.40;99.90;;;;;;4974295;28;20272;-65
2023/10/16 02:33:36;;;;;;;2.43;1.30;;;6.40;99.90;;;;;;4980297;28;20853;-64
2023/10/16 02:36:04;;;;;;;2.63;1.23;;;6.40;99.90;;;;;;4977248;28;20196;-64
2023/10/16 02:38:30;;;;;;;1.23;1.10;;;6.40;99.90;;;;;;4992372;28;20191;-64
2023/10/16 02:41:09;;;;;;;1.67;1.20;;;6.40;99.90;;;;;;4991853;28;20215;-64
2023/10/16 02:43:37;;;;;;;1.87;1.07;;;6.40;99.90;;;;;;4976006;28;20259;-64
2023/10/16 02:46:08;;;;;;;1.20;1.00;;;6.40;99.90;;;;;;4992644;28;20239;-65
2023/10/16 02:48:35;;;;;;;2.07;1.00;;;6.40;99.90;;;;;;4992545;28;20239;-65
2023/10/16 02:51:02;;;;;;;1.20;1.10;;;6.30;99.90;;;;;;4991781;28;20191;-64
2023/10/16 02:53:34;;;;;;;1.33;1.00;;;6.30;99.90;;;;;;4975445;28;20184;-64
2023/10/16 02:56:05;;;;;;;1.80;1.13;;;6.30;99.90;;;;;;4991634;28;20190;-64
2023/10/16 02:58:32;;;;;;;1.20;1.10;;;6.30;99.90;;;;;;4990996;28;20279;-65
2023/10/16 03:00:59;;;;;;;1.73;1.10;;;6.30;99.90;;;;;;4980116;28;20200;-64
2023/10/16 03:03:28;;;;;;;2.00;1.00;;;6.30;99.90;;;;;;4972963;28;20211;-65
2023/10/16 03:05:56;;;;;;;1.60;1.40;;;6.20;99.90;;;;;;4972981;28;20187;-65
2023/10/16 03:08:30;;;;;;;1.90;1.10;;;6.20;99.90;;;;;;4998030;28;20195;-64
2023/10/16 03:10:58;;;;;;;1.53;1.10;;;6.20;99.90;;;;;;5009164;28;20206;-64
2023/10/16 03:13:25;;;;;;;1.77;1.03;;;6.20;99.90;;;;;;4992228;28;20180;-65
2023/10/16 03:16:27;;;;;;;2.07;1.20;;;6.20;99.90;;;;;;4991105;28;20221;-64
2023/10/16 03:18:47;;;;;;;2.90;1.10;;;6.10;99.90;;;;;;4975372;28;20196;-65
2023/10/16 03:23:47;;;;;;;1.90;1.33;;;6.10;99.90;;;;;;4976541;28;20202;-65
2023/10/16 03:26:28;;;;;;;3.00;1.67;;;6.10;99.90;;;;;;4991917;28;20187;-64
2023/10/16 03:28:57;;;;;;;3.23;1.97;;;6.20;99.90;;;;;;4991911;28;20200;-65
2023/10/16 03:31:27;;;;;;;2.57;1.80;;;6.20;99.90;;;;;;4988624;28;20177;-65
2023/10/16 03:33:56;;;;;;;2.47;1.90;;;6.10;99.90;;;;;;4992054;28;20247;-65
2023/10/16 03:36:22;;;;;;;3.30;2.83;;;6.20;99.90;;;;;;5012166;28;20207;-64
2023/10/16 03:38:50;;;;;;;3.80;2.67;;;6.10;99.90;;;;;;5001975;28;20184;-64
2023/10/16 03:44:07;;;;;;;3.33;2.03;;;6.10;99.90;;;;;;4980015;28;20176;-65
2023/10/16 03:46:32;;;;;;;3.27;2.67;;;6.10;99.90;;;;;;4994735;28;20235;-65
2023/10/16 03:48:58;;;;;;;3.60;2.30;;;6.10;99.90;;;;;;4995339;28;20204;-64
2023/10/16 03:51:26;;;;;;;3.50;1.97;;;6.10;99.90;;;;;;4995214;28;20180;-64
2023/10/16 03:53:52;;;;;;;1.87;1.53;;;6.10;99.90;;;;;;4994851;28;20176;-64
2023/10/16 03:56:21;;;;;;;4.20;3.13;;;6.10;99.90;;;;;;4991247;28;20252;-64
2023/10/16 03:58:47;;;;;;;22.03;15.97;;;6.00;99.90;;;;;;4975349;28;20176;-66
2023/10/16 04:01:23;;;;;;;7.87;6.03;;;6.00;99.90;;;;;;4993328;28;20271;-66
2023/10/16 04:03:51;;;;;;;5.30;3.73;;;6.00;99.90;;;;;;4992494;28;20198;-66
2023/10/16 04:06:20;;;;;;;4.20;3.20;;;5.90;99.90;;;;;;4978126;28;20175;-66
2023/10/16 04:08:49;;;;;;;3.33;2.47;;;5.90;99.90;;;;;;4992634;28;20300;-66
2023/10/16 04:11:19;;;;;;;3.17;2.20;;;5.90;99.90;;;;;;4994950;28;20187;-66
2023/10/16 04:13:48;;;;;;;2.93;2.00;;;5.90;99.90;;;;;;4990652;28;20216;-65
2023/10/16 04:18:56;;;;;;;2.27;1.60;;;5.90;99.90;;;;;;4978466;28;20207;-66
2023/10/16 04:24:30;;;;;;;3.37;2.03;;;5.80;99.90;;;;;;4960719;28;20183;-65
2023/10/16 04:29:34;;;;;;;4.60;2.67;;;5.80;99.90;;;;;;4978840;28;20184;-65
2023/10/16 04:34:34;;;;;;;3.07;1.97;;;5.80;99.90;;;;;;4978666;28;20176;-66
2023/10/16 04:43:37;;;;;;;3.60;2.80;;;5.80;99.90;;;;;;4978777;28;20172;-66
2023/10/16 04:53:13;;;;;;;4.03;3.00;;;5.90;99.90;;;;;;4978280;28;20179;-64
2023/10/16 05:00:57;;;;;;;3.67;3.03;;;5.80;99.90;;;;;;4977337;28;20184;-63
2023/10/16 05:03:56;;;;;;;4.07;2.93;;;5.80;99.90;;;;;;4993732;28;20207;-63
2023/10/16 05:14:19;;;;;;;4.90;2.80;;;5.80;99.90;;;;;;4977534;28;20266;-65
2023/10/16 06:14:09;;;;;;;3.23;2.50;;;5.70;99.90;;;;;;4977699;28;20202;-64
2023/10/16 06:14:10;;;;;;;2.73;1.80;;;5.50;99.90;;;;;;4963172;28;20210;-64
2023/10/16 06:16:38;;;;;;;3.43;2.23;;;5.50;99.90;;;;;;4987729;28;20318;-64
2023/10/16 06:19:17;;;;;;;3.07;2.23;;;5.50;99.90;;;;;;4975582;28;20266;-64
2023/10/16 06:21:47;;;;;;;4.13;2.73;;;5.50;99.90;;;;;;4976110;28;20192;-64
2023/10/16 06:24:35;;;;;;;2.83;1.97;;;5.50;99.90;;;;;;4962640;28;20184;-65
2023/10/16 06:27:12;;;;;;;5.33;2.30;;;5.50;99.90;;;;;;4978034;28;20208;-64
2023/10/16 06:29:53;;;;;;;3.20;2.37;;;5.50;99.90;;;;;;4972815;28;20261;-65
2023/10/16 06:32:35;;;;;;;2.93;2.10;;;5.60;99.90;;;;;;4987215;28;20308;-65
2023/10/16 06:35:01;;;;;;;4.20;2.37;;;5.60;99.90;;;;;;4970341;28;20176;-64
2023/10/16 06:37:38;;;;;;;3.03;2.57;;;5.60;99.90;;;;;;4976476;28;20206;-64
2023/10/16 06:40:46;;;;;;;4.03;2.83;;;5.70;99.90;;;;;;4975956;28;20196;-64
2023/10/16 06:45:55;;;;;;;4.83;2.80;;;5.70;99.90;;;;;;4976000;28;20224;-63
2023/10/16 06:48:21;;;;;;;3.47;2.73;;;5.70;99.90;;;;;;4975626;28;20238;-63
2023/10/16 06:51:02;;;;;;;5.67;3.00;;;5.80;99.90;;;;;;4988325;28;20184;-64
2023/10/16 06:53:30;;;;;;;4.37;3.10;;;5.80;99.90;;;;;;4972606;28;20239;-64
2023/10/16 06:55:56;;;;;;;4.00;2.53;;;5.90;99.90;;;;;;4990425;28;20187;-64
2023/10/16 06:58:21;;;;;;;4.00;2.83;;;5.90;99.90;;;;;;4991590;28;20215;-64
2023/10/16 07:00:52;;;;;;;3.83;2.63;;;6.00;99.90;;;;;;4991763;28;20223;-64
2023/10/16 07:03:18;;;;;;;3.23;2.30;;;6.00;99.90;;;;;;4992011;28;20168;-64
2023/10/16 07:05:48;;;;;;;3.17;2.50;;;6.10;99.90;;;;;;4991844;28;20211;-65
2023/10/16 07:08:18;;;;;;;4.43;2.73;;;6.20;99.90;;;;;;4991942;28;20172;-65
2023/10/16 07:10:49;;;;;;;2.80;2.40;;;6.10;99.90;;;;;;4976318;28;20195;-65
2023/10/16 07:13:29;;;;;;;2.87;2.20;;;6.20;99.90;;;;;;4979329;28;20241;-65
2023/10/16 07:16:02;;;;;;;3.00;2.00;;;6.10;99.90;;;;;;4972931;28;20188;-64
2023/10/16 07:18:33;;;;;;;2.93;2.63;;;6.10;99.90;;;;;;4995586;28;20191;-63
2023/10/16 07:23:34;;;;;;;5.27;3.03;;;6.20;99.90;;;;;;4980205;28;20177;-64
2023/10/16 07:26:00;;;;;;;4.27;2.93;;;6.20;99.90;;;;;;4979042;28;20194;-64
2023/10/16 07:28:31;;;;;;;3.23;2.47;;;6.30;99.90;;;;;;4979607;28;20153;-63
2023/10/16 07:30:59;;;;;;;2.87;2.50;;;6.30;99.90;;;;;;4977572;28;20179;-64
2023/10/16 07:33:26;;;;;;;5.30;2.70;;;6.30;99.90;;;;;;4978856;28;20200;-63
2023/10/16 07:35:54;;;;;;;4.03;2.80;;;6.40;99.90;;;;;;4979083;28;20441;-64
2023/10/16 07:38:25;;;;;;;3.80;2.60;;;6.40;99.90;;;;;;4995348;28;20310;-65
2023/10/16 07:40:59;;;;;;;3.53;2.37;;;6.40;99.90;;;;;;4994790;28;20220;-65
2023/10/16 07:43:29;;;;;;;4.30;2.40;;;6.50;99.90;;;;;;4995153;28;20180;-65
2023/10/16 07:48:50;;;;;;;5.03;2.50;;;6.50;99.90;;;;;;4979796;28;20191;-64
2023/10/16 07:51:19;;;;;;;3.07;2.57;;;6.50;99.90;;;;;;4995081;28;20172;-65
2023/10/16 07:53:48;;;;;;;3.80;2.60;;;6.60;99.90;;;;;;4975090;28;20259;-64
2023/10/16 07:59:09;;;;;;;2.97;2.27;;;6.70;99.90;;;;;;4979560;28;20195;-64
2023/10/16 08:01:54;;;;;;;3.97;2.57;;;6.70;99.90;;;;;;4994242;28;20227;-65
2023/10/16 08:06:49;;;;;;;3.83;2.60;;;6.90;99.90;;;;;;4979141;28;20176;-65
2023/10/16 08:12:35;;;;;;;3.30;2.70;;;6.90;99.90;;;;;;4979138;28;20164;-71
2023/10/16 08:14:46;;;;;;;3.17;2.50;;;7.00;99.90;;;;;;4959114;28;20225;-74
2023/10/16 08:17:16;;;;;;;3.47;2.73;;;7.10;99.90;;;;;;4986818;28;20186;-73
2023/10/16 08:19:45;;;;;;;3.77;2.80;;;7.10;99.90;;;;;;4994068;28;20235;-74
2023/10/16 08:22:15;;;;;;;3.93;2.90;;;7.20;99.90;;;;;;4993795;28;20208;-75
2023/10/16 08:24:57;;;;;;;5.07;3.00;;;7.20;99.90;;;;;;4990970;28;20185;-73
2023/10/16 08:27:50;;;;;;;3.93;3.00;;;7.20;99.90;;;;;;4988309;28;20204;-73
2023/10/16 08:30:18;;;;;;;3.73;2.80;;;7.30;99.90;;;;;;4992297;28;20218;-73
2023/10/16 08:35:19;;;;;;;5.17;3.10;;;7.40;99.90;;;;;;4978414;28;20196;-73
2023/10/16 08:38:11;;;;;;;3.40;3.07;;;7.50;99.90;;;;;;4993838;28;20192;-73
2023/10/16 08:40:39;;;;;;;4.53;2.97;;;7.40;99.90;;;;;;4978122;28;20208;-73
2023/10/16 08:43:08;;;;;;;4.43;2.80;;;7.60;99.90;;;;;;4993940;28;20248;-73
2023/10/16 08:45:34;;;;;;;3.83;2.90;;;7.60;99.90;;;;;;4990287;28;20264;-74
2023/10/16 08:48:06;;;;;;;3.30;2.90;;;7.70;99.90;;;;;;4979742;28;20240;-73
2023/10/16 08:50:52;;;;;;;3.47;2.93;;;7.80;99.90;;;;;;4958171;29;20172;-74
2023/10/16 08:53:32;;;;;;;5.10;2.73;;;7.90;99.90;;;;;;4970166;28;20248;-73
2023/10/16 08:56:07;;;;;;;3.13;2.60;;;8.10;99.90;;;;;;4977656;28;20262;-74
2023/10/16 08:58:42;;;;;;;4.97;2.80;;;8.10;99.90;;;;;;4993132;28;20191;-73
2023/10/16 09:01:13;;;;;;;4.90;3.27;;;8.30;99.90;;;;;;4992718;28;20205;-72
2023/10/16 09:03:50;;;;;;;4.73;3.60;;;8.30;99.90;;;;;;4978707;28;20196;-74
2023/10/16 09:06:23;;;;;;;4.70;3.53;;;8.50;99.90;;;;;;4976651;28;20180;-74
2023/10/16 09:08:58;;;;;;;4.63;3.63;;;8.60;99.90;;;;;;4977095;28;20172;-73
2023/10/16 09:11:29;;;;;;;6.27;4.17;;;9.10;99.90;;;;;;4976565;28;20176;-74
2023/10/16 09:13:59;;;;;;;5.00;3.80;;;9.80;99.90;;;;;;4976619;28;20191;-70
2023/10/16 09:16:26;;;;;;;6.23;4.17;;;10.40;99.90;;;;;;4976850;28;20500;-72
2023/10/16 09:18:53;;;;;;;5.65;4.80;;;11.10;99.90;;;;;;4986254;28;20216;-71
2023/10/16 09:21:23;;;;;;;7.30;4.47;;;11.70;99.90;;;;;;4973533;28;20211;-70
2023/10/16 09:23:52;;;;;;;6.45;4.55;;;12.20;99.90;;;;;;4987905;28;20195;-72
2023/10/16 09:26:22;;;;;;;4.47;3.63;;;12.70;99.90;;;;;;4976273;28;20188;-69
2023/10/16 09:28:49;;;;;;;6.30;4.53;;;13.10;99.90;;;;;;4992365;28;20203;-72
2023/10/16 09:31:20;;;;;;;6.68;4.82;;;13.50;99.90;;;;;;4976489;28;20180;-72
2023/10/16 09:33:49;;;;;;;7.18;4.80;;;13.80;99.90;;;;;;4992712;28;20194;-71
2023/10/16 09:36:18;;;;;;;6.32;4.63;;;14.00;99.90;;;;;;4992267;28;20191;-72
2023/10/16 09:38:56;;;;;;;6.53;4.75;;;14.20;99.90;;;;;;4992527;28;20239;-74
2023/10/16 09:49:14;;;;;;;7.95;5.38;;;14.80;99.90;;;;;;4976548;28;20180;-72
2023/10/16 09:51:44;;;;;;;7.95;5.85;;;14.90;99.90;;;;;;4991845;28;20216;-73
2023/10/16 09:54:11;;;;;;;7.85;5.72;;;15.00;99.90;;;;;;4982129;28;20184;-72
2023/10/16 09:56:40;;;;;;;6.72;5.43;;;15.10;99.90;;;;;;4991066;28;20183;-71
2023/10/16 09:59:12;;;;;;;5.90;5.05;;;15.20;99.90;;;;;;4975914;28;20215;-72
2023/10/16 10:01:48;;;;;;;8.10;5.72;;;15.30;99.90;;;;;;4988554;28;20224;-72
2023/10/16 10:04:19;;;;;;;9.30;5.57;;;15.40;99.90;;;;;;4975941;28;20219;-71
2023/10/16 10:06:57;;;;;;;7.10;5.38;;;15.50;99.90;;;;;;4985259;28;20408;-71
2023/10/16 10:09:44;;;;;;;7.28;5.63;;;15.50;99.90;;;;;;4991542;28;20192;-70
2023/10/16 10:12:37;;;;;;;7.38;5.55;;;15.50;99.90;;;;;;4975981;28;20234;-70
2023/10/16 10:15:18;;;;;;;7.43;5.75;;;15.50;99.90;;;;;;4975659;28;20184;-71
2023/10/16 10:17:46;;;;;;;8.43;6.18;;;15.50;99.90;;;;;;4991998;28;20222;-72
2023/10/16 10:20:31;;;;;;;8.05;5.47;;;15.50;99.90;;;;;;4987802;28;20219;-72
2023/10/16 10:23:04;;;;;;;6.85;5.38;;;15.50;99.90;;;;;;4980188;28;20191;-72
2023/10/16 10:25:45;;;;;;;6.93;5.30;;;15.50;99.90;;;;;;4975068;28;20262;-72
2023/10/16 10:28:22;;;;;;;8.40;5.80;;;15.40;99.90;;;;;;4975244;28;20187;-73
2023/10/16 10:30:50;;;;;;;7.55;5.25;;;15.00;99.90;;;;;;4975675;28;20164;-72
2023/10/16 10:33:37;;;;;;;8.73;5.95;;;14.80;99.90;;;;;;4975291;28;20195;-70
2023/10/16 10:36:36;;;;;;;8.75;5.50;;;14.60;99.90;;;;;;4991614;28;20192;-70
2023/10/16 10:39:21;;;;;;;6.97;5.20;;;14.60;99.90;;;;;;4989928;28;20339;-70
2023/10/16 10:41:51;;;;;;;7.97;5.50;;;14.70;99.90;;;;;;4980489;28;20184;-70
2023/10/16 10:44:20;;;;;;;10.13;5.68;;;14.80;99.90;;;;;;4957045;29;20245;-69
2023/10/16 10:47:05;;;;;;;6.97;5.28;;;14.90;99.90;;;;;;4955594;28;20164;-70
2023/10/16 10:49:34;;;;;;;7.43;5.80;;;15.00;99.90;;;;;;4957795;28;20177;-72
2023/10/16 10:52:05;;;;;;;7.13;4.93;;;15.20;99.90;;;;;;4955876;28;20201;-71
2023/10/16 10:54:31;;;;;;;6.40;5.07;;;15.30;99.90;;;;;;4969411;28;20218;-71
2023/10/16 10:57:07;;;;;;;7.90;5.22;;;15.40;99.90;;;;;;4974320;28;20183;-71
2023/10/16 10:59:40;;;;;;;7.70;5.28;;;15.50;99.90;;;;;;4968765;28;20267;-73
2023/10/16 11:04:44;;;;;;;6.07;4.88;;;15.60;99.90;;;;;;4975700;28;20259;-73
2023/10/16 11:07:23;;;;;;;6.72;4.50;;;15.70;99.90;;;;;;4987219;28;20188;-72
2023/10/16 11:09:52;;;;;;;6.63;4.97;;;15.80;99.90;;;;;;4975159;28;20176;-71
2023/10/16 11:12:24;;;;;;;7.88;4.60;;;16.00;99.90;;;;;;4986164;28;20203;-70
2023/10/16 11:14:53;;;;;;;6.85;4.65;;;16.00;99.90;;;;;;4991310;28;20334;-71
2023/10/16 11:17:34;;;;;;;7.55;5.10;;;16.10;99.90;;;;;;4971805;28;20350;-72
2023/10/16 11:20:27;;;;;;;8.07;5.15;;;16.10;99.90;;;;;;4981075;28;20219;-71
2023/10/16 11:23:12;;;;;;;5.57;4.00;;;16.10;99.90;;;;;;4991390;28;20266;-71
2023/10/16 11:26:05;;;;;;;6.35;3.92;;;16.10;99.90;;;;;;4976814;28;20247;-71
2023/10/16 11:28:36;;;;;;;5.78;4.03;;;16.20;99.90;;;;;;4989336;28;20177;-71
2023/10/16 11:31:09;;;;;;;7.50;4.47;;;16.20;99.90;;;;;;4975007;28;20200;-72
2023/10/16 11:33:47;;;;;;;6.05;4.25;;;16.20;99.90;;;;;;4976467;28;20204;-71
2023/10/16 11:36:16;;;;;;;5.80;4.35;;;16.10;99.90;;;;;;4974129;28;20229;-72
2023/10/16 11:38:44;;;;;;;5.95;4.00;;;16.10;99.90;;;;;;4975569;28;20195;-72
2023/10/16 11:41:16;;;;;;;4.75;4.03;;;16.10;99.90;;;;;;4975031;28;20215;-72
2023/10/16 11:43:51;;;;;;;5.45;4.07;;;16.20;99.90;;;;;;4973805;28;20180;-70
2023/10/16 11:46:31;;;;;;;6.28;4.28;;;16.30;99.90;;;;;;4991028;28;20172;-71
2023/10/16 11:52:08;;;;;;;6.03;4.10;;;16.40;99.90;;;;;;4956594;29;20184;-72
2023/10/16 11:54:40;;;;;;;5.72;4.10;;;16.50;99.90;;;;;;4987296;28;20200;-73
2023/10/16 11:57:06;;;;;;;4.65;3.55;;;16.60;99.90;;;;;;4972861;28;20187;-72
2023/10/16 11:59:34;;;;;;;4.70;3.63;;;16.60;99.90;;;;;;4991249;28;20188;-72
2023/10/16 12:02:02;;;;;;;4.55;3.17;;;16.70;99.90;;;;;;4994013;28;20419;-73
2023/10/16 12:04:28;;;;;;;5.82;3.42;;;16.70;99.90;;;;;;4994628;28;20168;-73
2023/10/16 12:06:57;;;;;;;4.35;2.97;;;16.70;99.90;;;;;;4987323;28;20263;-73
2023/10/16 12:09:36;;;;;;;4.32;3.25;;;16.70;99.90;;;;;;4975285;28;20169;-73
2023/10/16 12:12:06;;;;;;;3.42;2.70;;;16.70;99.90;;;;;;4988076;28;20184;-72
2023/10/16 12:14:38;;;;;;;4.43;3.17;;;16.70;99.90;;;;;;4990923;28;20201;-73
2023/10/16 12:17:11;;;;;;;3.83;3.03;;;16.70;99.90;;;;;;4968777;28;20187;-73
2023/10/16 12:19:40;;;;;;;4.10;2.75;;;16.70;99.90;;;;;;4977525;28;20180;-73
2023/10/16 12:22:08;;;;;;;3.55;2.65;;;16.80;99.90;;;;;;4979630;28;20176;-73
2023/10/16 12:24:36;;;;;;;3.88;2.70;;;16.80;99.90;;;;;;4976766;28;20478;-71
2023/10/16 12:27:02;;;;;;;5.25;2.58;;;16.90;99.90;;;;;;4978099;28;20178;-71
2023/10/16 12:29:30;;;;;;;4.43;2.83;;;16.90;99.90;;;;;;4994277;28;20271;-73
2023/10/16 12:31:55;;;;;;;4.82;2.78;;;17.00;99.90;;;;;;4978700;28;20172;-72
2023/10/16 12:34:24;;;;;;;4.00;2.20;;;17.00;99.90;;;;;;4994154;28;20178;-72
2023/10/16 12:36:51;;;;;;;5.05;2.65;;;17.10;99.90;;;;;;5002940;28;20253;-73
2023/10/16 12:39:25;;;;;;;4.70;2.40;;;17.10;99.90;;;;;;4994210;28;20275;-73
2023/10/16 12:41:57;;;;;;;3.47;2.70;;;17.10;99.90;;;;;;4993677;28;20204;-73
2023/10/16 12:44:26;;;;;;;4.22;2.47;;;17.10;99.90;;;;;;4994015;28;20242;-73
2023/10/16 12:46:53;;;;;;;3.28;2.10;;;17.10;99.90;;;;;;4994034;28;20177;-70
2023/10/16 12:49:20;;;;;;;2.17;1.80;;;17.10;99.90;;;;;;4993687;28;20196;-73
2023/10/16 12:51:48;;;;;;;2.70;1.75;;;17.10;99.90;;;;;;4993728;28;20179;-73
2023/10/16 12:54:16;;;;;;;4.53;2.00;;;17.00;99.90;;;;;;4993377;28;20184;-72
2023/10/16 12:56:44;;;;;;;2.33;1.90;;;16.90;99.90;;;;;;4993578;28;20215;-72
2023/10/16 12:59:12;;;;;;;5.00;1.75;;;16.90;99.90;;;;;;4993460;28;20180;-72
2023/10/16 13:01:38;;;;;;;2.13;1.40;;;16.80;99.90;;;;;;4993191;28;20215;-72
2023/10/16 13:04:13;;;;;;;3.28;1.70;;;16.80;99.90;;;;;;4977406;28;20172;-73
2023/10/16 13:06:43;;;;;;;2.90;1.63;;;16.70;99.90;;;;;;4976551;28;20168;-71
2023/10/16 13:09:16;;;;;;;2.85;1.70;;;16.60;99.90;;;;;;4992415;28;20262;-71
2023/10/16 13:11:43;;;;;;;2.65;1.50;;;16.60;99.90;;;;;;4992605;28;20183;-72
2023/10/16 13:14:11;;;;;;;4.13;1.85;;;16.60;99.90;;;;;;4977241;28;20287;-71
2023/10/16 13:16:53;;;;;;;2.28;1.48;;;16.50;99.90;;;;;;4976374;28;20347;-72
2023/10/16 13:19:27;;;;;;;2.60;1.40;;;16.40;99.90;;;;;;4976660;28;20186;-72
2023/10/16 13:21:55;;;;;;;1.77;1.20;;;16.40;99.90;;;;;;4973261;28;20187;-71
2023/10/16 13:24:25;;;;;;;2.33;1.42;;;16.30;99.90;;;;;;4992645;28;20180;-72
2023/10/16 13:26:53;;;;;;;2.13;1.35;;;16.20;99.90;;;;;;4976528;28;20226;-71
2023/10/16 13:29:19;;;;;;;2.72;1.70;;;16.20;99.90;;;;;;4992858;28;20258;-73
2023/10/16 13:31:45;;;;;;;2.33;1.30;;;16.10;99.90;;;;;;4993011;28;20180;-71
2023/10/16 13:34:13;;;;;;;2.75;1.63;;;16.10;99.90;;;;;;4992794;28;20203;-69
2023/10/16 13:36:56;;;;;;;2.92;1.63;;;16.00;99.90;;;;;;4992828;28;20204;-72
2023/10/16 13:39:31;;;;;;;2.42;1.50;;;15.90;99.90;;;;;;4992713;28;20188;-71
2023/10/16 13:42:01;;;;;;;2.95;1.70;;;15.80;99.90;;;;;;5003844;28;20214;-71
2023/10/16 13:44:32;;;;;;;2.55;1.40;;;15.80;99.90;;;;;;4976351;28;20202;-71
2023/10/16 13:46:59;;;;;;;2.65;1.77;;;15.70;99.90;;;;;;4992891;28;20172;-69
2023/10/16 13:49:24;;;;;;;2.00;1.65;;;15.60;99.90;;;;;;4992533;28;20180;-71
2023/10/16 13:51:53;;;;;;;2.15;1.50;;;15.60;99.90;;;;;;4976647;28;20172;-69
2023/10/16 13:54:18;;;;;;;2.40;1.80;;;15.60;99.90;;;;;;4992836;28;20282;-70
2023/10/16 13:56:46;;;;;;;2.20;1.88;;;15.40;99.90;;;;;;4991878;28;20228;-71
2023/10/16 13:59:15;;;;;;;2.42;1.80;;;15.40;99.90;;;;;;4975936;28;20200;-72
2023/10/16 14:01:43;;;;;;;2.42;1.55;;;15.30;99.90;;;;;;4988687;28;20299;-71
2023/10/16 14:04:15;;;;;;;2.75;1.48;;;15.30;99.90;;;;;;4992226;28;20200;-73
2023/10/16 14:06:53;;;;;;;2.08;1.60;;;15.20;99.90;;;;;;4991525;28;20267;-71
2023/10/16 14:09:32;;;;;;;3.15;1.40;;;15.10;99.90;;;;;;4989517;28;20208;-69
2023/10/16 14:12:03;;;;;;;2.13;1.48;;;15.10;99.90;;;;;;4972325;28;20196;-71
2023/10/16 14:14:33;;;;;;;2.00;1.80;;;15.10;99.90;;;;;;4975480;28;20248;-71
2023/10/16 14:17:16;;;;;;;2.30;1.63;;;15.10;99.90;;;;;;4984432;28;20180;-71
2023/10/16 14:19:47;;;;;;;2.50;1.80;;;15.00;99.90;;;;;;4988028;28;20260;-71
2023/10/16 14:22:15;;;;;;;2.10;1.60;;;15.00;99.90;;;;;;4972287;28;20488;-68
2023/10/16 14:24:44;;;;;;;2.65;1.90;;;15.00;99.90;;;;;;4986304;28;20188;-71
2023/10/16 14:27:18;;;;;;;3.70;1.98;;;15.00;99.90;;;;;;4978844;28;20182;-71
2023/10/16 14:29:45;;;;;;;3.50;1.80;;;15.00;99.90;;;;;;4988249;28;20191;-70
2023/10/16 14:32:13;;;;;;;2.53;1.70;;;14.90;99.90;;;;;;4972651;28;20188;-70
2023/10/16 14:34:40;;;;;;;3.13;1.67;;;15.00;99.90;;;;;;4991666;28;20211;-71
2023/10/16 14:37:05;;;;;;;2.67;1.58;;;14.90;99.90;;;;;;4991422;28;20250;-71
2023/10/16 14:39:35;;;;;;;2.22;1.55;;;14.90;99.90;;;;;;4976535;28;20172;-71
2023/10/16 14:42:05;;;;;;;2.75;1.77;;;14.90;99.90;;;;;;4975614;28;20228;-70
2023/10/16 14:44:33;;;;;;;3.15;1.42;;;14.90;99.90;;;;;;4990533;28;20196;-71
2023/10/16 14:47:09;;;;;;;2.88;1.80;;;14.90;99.90;;;;;;4991854;28;20196;-69
2023/10/16 14:49:35;;;;;;;3.30;1.70;;;14.80;99.90;;;;;;4988873;28;20164;-72
2023/10/16 14:52:03;;;;;;;4.53;1.60;;;14.80;99.90;;;;;;4982365;28;20510;-70
2023/10/16 14:54:29;;;;;;;2.70;1.65;;;14.80;99.90;;;;;;4974818;28;20208;-72
2023/10/16 14:56:59;;;;;;;2.35;1.50;;;14.80;99.90;;;;;;4972080;28;20180;-72
2023/10/16 14:59:32;;;;;;;1.67;1.50;;;14.80;99.90;;;;;;4988579;28;20203;-71
2023/10/16 15:02:00;;;;;;;1.88;1.48;;;14.70;99.90;;;;;;4989033;28;20546;-73
2023/10/16 15:04:27;;;;;;;2.17;1.50;;;14.70;99.90;;;;;;4991286;28;20242;-70
2023/10/16 15:07:03;;;;;;;2.03;1.35;;;14.60;99.90;;;;;;4973418;28;20187;-73
2023/10/16 15:09:31;;;;;;;3.17;1.60;;;14.60;99.90;;;;;;4991860;28;20171;-73
2023/10/16 15:11:57;;;;;;;2.88;1.42;;;14.60;99.90;;;;;;4974759;28;20210;-68
2023/10/16 15:14:25;;;;;;;2.35;1.30;;;14.50;99.90;;;;;;4973939;28;20184;-71
2023/10/16 15:16:50;;;;;;;2.35;1.27;;;14.50;99.90;;;;;;4991740;28;20176;-72
2023/10/16 15:19:16;;;;;;;1.95;1.50;;;14.50;99.90;;;;;;4990972;28;20200;-72
2023/10/16 15:21:41;;;;;;;2.28;1.40;;;14.40;99.90;;;;;;4979559;28;20196;-71
2023/10/16 15:24:09;;;;;;;2.65;1.40;;;14.40;99.90;;;;;;4991870;28;20196;-71
2023/10/16 15:26:37;;;;;;;2.85;1.55;;;14.30;99.90;;;;;;4979179;28;20172;-72
2023/10/16 15:29:04;;;;;;;2.35;1.50;;;14.30;99.90;;;;;;4987390;28;20188;-74